sensor_id;sensor_type;location;lat;lon;timestamp;temperature;humidity
20204;DHT22;10261;49.010;12.034;2023-08-06T00:00:07;15.40;99.90
20204;DHT22;10261;49.010;12.034;2023-08-06T00:01:10;15.30;99.90
20204;DHT22;10261;49.010;12.034;2023-08-06T00:02:13;15.30;99.90
20204;DHT22;10261;49.010;12.034;2023-08-06T00:03:15;15.30;99.90
20204;DHT22;10261;49.010;12.034;2023-08-06T00:04:18;15.30;99.90
20204;DHT22;10261;49.010;12.034;2023-08-06T00:05:21;15.30;99.90
20204;DHT22;10261;49.010;12.034;2023-08-06T00:06:23;15.30;99.90
20204;DHT22;10261;49.010;12.034;2023-08-06T00:07:25;15.30;99.90
20204;DHT22;10261;49.010;12.034;2023-08-06T00:08:28;15.30;99.90
20204;DHT22;10261;49.010;12.034;2023-08-06T00:09:30;15.30;99.90
20204;DHT22;10261;49.010;12.034;2023-08-06T00:10:33;15.40;99.90
20204;DHT22;10261;49.010;12.034;2023-08-06T00:11:35;15.30;99.90
20204;DHT22;10261;49.010;12.034;2023-08-06T00:12:39;15.30;99.90
20204;DHT22;10261;49.010;12.034;2023-08-06T00:13:41;15.30;99.90
20204;DHT22;10261;49.010;12.034;2023-08-06T00:14:44;15.30;99.90
20204;DHT22;10261;49.010;12.034;2023-08-06T00:15:46;15.30;99.90
20204;DHT22;10261;49.010;12.034;2023-08-06T00:16:49;15.30;99.90
20204;DHT22;10261;49.010;12.034;2023-08-06T00:17:51;15.30;99.90
20204;DHT22;10261;49.010;12.034;2023-08-06T00:18:54;15.30;99.90
20204;DHT22;10261;49.010;12.034;2023-08-06T00:19:56;15.30;99.90
20204;DHT22;10261;49.010;12.034;2023-08-06T00:20:58;15.30;99.90
20204;DHT22;10261;49.010;12.034;2023-08-06T00:22:01;15.30;99.90
20204;DHT22;10261;49.010;12.034;2023-08-06T00:23:03;15.30;99.90
20204;DHT22;10261;49.010;12.034;2023-08-06T00:24:06;15.30;99.90
20204;DHT22;10261;49.010;12.034;2023-08-06T00:25:08;15.30;99.90
20204;DHT22;10261;49.010;12.034;2023-08-06T00:26:10;15.30;99.90
20204;DHT22;10261;49.010;12.034;2023-08-06T00:27:13;15.20;99.90
20204;DHT22;10261;49.010;12.034;2023-08-06T00:28:16;15.30;99.90
20204;DHT22;10261;49.010;12.034;2023-08-06T00:29:19;15.30;99.90
20204;DHT22;10261;49.010;12.034;2023-08-06T00:30:21;15.30;99.90
20204;DHT22;10261;49.010;12.034;2023-08-06T00:31:24;15.30;99.90
20204;DHT22;10261;49.010;12.034;2023-08-06T00:32:26;15.30;99.90
20204;DHT22;10261;49.010;12.034;2023-08-06T00:33:29;15.30;99.90
20204;DHT22;10261;49.010;12.034;2023-08-06T00:34:31;15.30;99.90
20204;DHT22;10261;49.010;12.034;2023-08-06T00:35:33;15.40;99.90
20204;DHT22;10261;49.010;12.034;2023-08-06T00:36:35;15.30;99.90
20204;DHT22;10261;49.010;12.034;2023-08-06T00:37:38;15.30;99.90
20204;DHT22;10261;49.010;12.034;2023-08-06T00:38:40;15.30;99.90
20204;DHT22;10261;49.010;12.034;2023-08-06T00:39:43;15.30;99.90
20204;DHT22;10261;49.010;12.034;2023-08-06T00:40:45;15.30;99.90
20204;DHT22;10261;49.010;12.034;2023-08-06T00:41:49;15.30;99.90
20204;DHT22;10261;49.010;12.034;2023-08-06T00:42:51;15.30;99.90
20204;DHT22;10261;49.010;12.034;2023-08-06T00:43:56;15.30;99.90
20204;DHT22;10261;49.010;12.034;2023-08-06T00:44:57;15.30;99.90
20204;DHT22;10261;49.010;12.034;2023-08-06T00:46:00;15.20;99.90
20204;DHT22;10261;49.010;12.034;2023-08-06T00:47:03;15.30;99.90
20204;DHT22;10261;49.010;12.034;2023-08-06T00:48:06;15.30;99.90
20204;DHT22;10261;49.010;12.034;2023-08-06T00:49:09;15.20;99.90
20204;DHT22;10261;49.010;12.034;2023-08-06T00:50:11;15.30;99.90
20204;DHT22;10261;49.010;12.034;2023-08-06T00:51:14;15.30;99.90
20204;DHT22;10261;49.010;12.034;2023-08-06T00:52:17;15.30;99.90
20204;DHT22;10261;49.010;12.034;2023-08-06T00:53:20;15.30;99.90
20204;DHT22;10261;49.010;12.034;2023-08-06T00:54:23;15.30;99.90
20204;DHT22;10261;49.010;12.034;2023-08-06T00:55:26;15.30;99.90
20204;DHT22;10261;49.010;12.034;2023-08-06T00:56:29;15.20;99.90
20204;DHT22;10261;49.010;12.034;2023-08-06T00:57:31;15.20;99.90
20204;DHT22;10261;49.010;12.034;2023-08-06T00:58:35;15.20;99.90
20204;DHT22;10261;49.010;12.034;2023-08-06T00:59:38;15.20;99.90
20204;DHT22;10261;49.010;12.034;2023-08-06T01:00:42;15.20;99.90
20204;DHT22;10261;49.010;12.034;2023-08-06T01:01:44;15.20;99.90
20204;DHT22;10261;49.010;12.034;2023-08-06T01:02:48;15.20;99.90
20204;DHT22;10261;49.010;12.034;2023-08-06T01:03:50;15.20;99.90
20204;DHT22;10261;49.010;12.034;2023-08-06T01:04:53;15.30;99.90
20204;DHT22;10261;49.010;12.034;2023-08-06T01:05:55;15.30;99.90
20204;DHT22;10261;49.010;12.034;2023-08-06T01:07:04;15.30;99.90
20204;DHT22;10261;49.010;12.034;2023-08-06T01:08:19;15.20;99.90
20204;DHT22;10261;49.010;12.034;2023-08-06T01:09:33;15.20;99.90
20204;DHT22;10261;49.010;12.034;2023-08-06T01:10:45;15.30;99.90
20204;DHT22;10261;49.010;12.034;2023-08-06T01:11:59;15.20;99.90
20204;DHT22;10261;49.010;12.034;2023-08-06T01:13:11;15.20;99.90
20204;DHT22;10261;49.010;12.034;2023-08-06T01:14:26;15.20;99.90
20204;DHT22;10261;49.010;12.034;2023-08-06T01:15:34;15.20;99.90
20204;DHT22;10261;49.010;12.034;2023-08-06T01:16:37;15.20;99.90
20204;DHT22;10261;49.010;12.034;2023-08-06T01:17:42;15.20;99.90
20204;DHT22;10261;49.010;12.034;2023-08-06T01:18:47;15.20;99.90
20204;DHT22;10261;49.010;12.034;2023-08-06T01:19:51;15.20;99.90
20204;DHT22;10261;49.010;12.034;2023-08-06T01:20:55;15.20;99.90
20204;DHT22;10261;49.010;12.034;2023-08-06T01:21:57;15.20;99.90
20204;DHT22;10261;49.010;12.034;2023-08-06T01:23:00;15.20;99.90
20204;DHT22;10261;49.010;12.034;2023-08-06T01:24:02;15.20;99.90
20204;DHT22;10261;49.010;12.034;2023-08-06T01:25:06;15.20;99.90
20204;DHT22;10261;49.010;12.034;2023-08-06T01:26:13;15.20;99.90
20204;DHT22;10261;49.010;12.034;2023-08-06T01:27:21;15.20;99.90
20204;DHT22;10261;49.010;12.034;2023-08-06T01:28:33;15.10;99.90
20204;DHT22;10261;49.010;12.034;2023-08-06T01:29:43;15.10;99.90
20204;DHT22;10261;49.010;12.034;2023-08-06T01:30:47;15.10;99.90
20204;DHT22;10261;49.010;12.034;2023-08-06T01:31:52;15.00;99.90
20204;DHT22;10261;49.010;12.034;2023-08-06T01:32:58;15.00;99.90
20204;DHT22;10261;49.010;12.034;2023-08-06T01:34:06;15.00;99.90
20204;DHT22;10261;49.010;12.034;2023-08-06T01:35:11;15.00;99.90
20204;DHT22;10261;49.010;12.034;2023-08-06T01:36:16;14.90;99.90
20204;DHT22;10261;49.010;12.034;2023-08-06T01:37:19;14.90;99.90
20204;DHT22;10261;49.010;12.034;2023-08-06T01:38:22;14.90;99.90
20204;DHT22;10261;49.010;12.034;2023-08-06T01:39:24;14.80;99.90
20204;DHT22;10261;49.010;12.034;2023-08-06T01:40:27;14.80;99.90
20204;DHT22;10261;49.010;12.034;2023-08-06T01:41:31;14.80;99.90
20204;DHT22;10261;49.010;12.034;2023-08-06T01:42:34;14.70;99.90
20204;DHT22;10261;49.010;12.034;2023-08-06T01:43:35;14.70;99.90
20204;DHT22;10261;49.010;12.034;2023-08-06T01:44:38;14.70;99.90
20204;DHT22;10261;49.010;12.034;2023-08-06T01:45:40;14.60;99.90
20204;DHT22;10261;49.010;12.034;2023-08-06T01:46:43;14.60;99.90
20204;DHT22;10261;49.010;12.034;2023-08-06T01:47:45;14.60;99.90
20204;DHT22;10261;49.010;12.034;2023-08-06T01:48:48;14.60;99.90
20204;DHT22;10261;49.010;12.034;2023-08-06T01:49:50;14.50;99.90
20204;DHT22;10261;49.010;12.034;2023-08-06T01:50:53;14.50;99.90
20204;DHT22;10261;49.010;12.034;2023-08-06T01:51:56;14.50;99.90
20204;DHT22;10261;49.010;12.034;2023-08-06T01:52:59;14.50;99.90
20204;DHT22;10261;49.010;12.034;2023-08-06T01:54:01;14.50;99.90
20204;DHT22;10261;49.010;12.034;2023-08-06T01:55:04;14.60;99.90
20204;DHT22;10261;49.010;12.034;2023-08-06T01:56:06;14.50;99.90
20204;DHT22;10261;49.010;12.034;2023-08-06T01:57:09;14.50;99.90
20204;DHT22;10261;49.010;12.034;2023-08-06T01:58:11;14.50;99.90
20204;DHT22;10261;49.010;12.034;2023-08-06T01:59:14;14.50;99.90
20204;DHT22;10261;49.010;12.034;2023-08-06T02:00:16;14.40;99.90
20204;DHT22;10261;49.010;12.034;2023-08-06T02:01:18;14.40;99.90
20204;DHT22;10261;49.010;12.034;2023-08-06T02:02:20;14.30;99.90
20204;DHT22;10261;49.010;12.034;2023-08-06T02:03:23;14.30;99.90
20204;DHT22;10261;49.010;12.034;2023-08-06T02:04:25;14.30;99.90
20204;DHT22;10261;49.010;12.034;2023-08-06T02:05:28;14.30;99.90
20204;DHT22;10261;49.010;12.034;2023-08-06T02:06:30;14.30;99.90
20204;DHT22;10261;49.010;12.034;2023-08-06T02:07:34;14.30;99.90
20204;DHT22;10261;49.010;12.034;2023-08-06T02:08:36;14.30;99.90
20204;DHT22;10261;49.010;12.034;2023-08-06T02:09:40;14.30;99.90
20204;DHT22;10261;49.010;12.034;2023-08-06T02:10:42;14.30;99.90
20204;DHT22;10261;49.010;12.034;2023-08-06T02:11:44;14.30;99.90
20204;DHT22;10261;49.010;12.034;2023-08-06T02:12:46;14.30;99.90
20204;DHT22;10261;49.010;12.034;2023-08-06T02:13:49;14.20;99.90
20204;DHT22;10261;49.010;12.034;2023-08-06T02:14:51;14.10;99.90
20204;DHT22;10261;49.010;12.034;2023-08-06T02:15:54;14.10;99.90
20204;DHT22;10261;49.010;12.034;2023-08-06T02:16:56;14.20;99.90
20204;DHT22;10261;49.010;12.034;2023-08-06T02:17:59;14.10;99.90
20204;DHT22;10261;49.010;12.034;2023-08-06T02:19:01;14.10;99.90
20204;DHT22;10261;49.010;12.034;2023-08-06T02:20:05;14.10;99.90
20204;DHT22;10261;49.010;12.034;2023-08-06T02:21:07;14.10;99.90
20204;DHT22;10261;49.010;12.034;2023-08-06T02:22:10;14.10;99.90
20204;DHT22;10261;49.010;12.034;2023-08-06T02:23:13;14.10;99.90
20204;DHT22;10261;49.010;12.034;2023-08-06T02:24:16;14.20;99.90
20204;DHT22;10261;49.010;12.034;2023-08-06T02:25:18;14.20;99.90
20204;DHT22;10261;49.010;12.034;2023-08-06T02:26:20;14.10;99.90
20204;DHT22;10261;49.010;12.034;2023-08-06T02:27:22;14.20;99.90
20204;DHT22;10261;49.010;12.034;2023-08-06T02:28:24;14.10;99.90
20204;DHT22;10261;49.010;12.034;2023-08-06T02:29:27;14.10;99.90
20204;DHT22;10261;49.010;12.034;2023-08-06T02:30:29;14.10;99.90
20204;DHT22;10261;49.010;12.034;2023-08-06T02:31:32;14.00;99.90
20204;DHT22;10261;49.010;12.034;2023-08-06T02:32:34;14.00;99.90
20204;DHT22;10261;49.010;12.034;2023-08-06T02:33:37;14.00;99.90
20204;DHT22;10261;49.010;12.034;2023-08-06T02:34:39;13.90;99.90
20204;DHT22;10261;49.010;12.034;2023-08-06T02:35:42;13.80;99.90
20204;DHT22;10261;49.010;12.034;2023-08-06T02:36:44;13.90;99.90
20204;DHT22;10261;49.010;12.034;2023-08-06T02:37:47;13.90;99.90
20204;DHT22;10261;49.010;12.034;2023-08-06T02:38:50;13.90;99.90
20204;DHT22;10261;49.010;12.034;2023-08-06T02:39:53;13.90;99.90
20204;DHT22;10261;49.010;12.034;2023-08-06T02:40:55;13.90;99.90
20204;DHT22;10261;49.010;12.034;2023-08-06T02:41:58;13.80;99.90
20204;DHT22;10261;49.010;12.034;2023-08-06T02:43:00;13.90;99.90
20204;DHT22;10261;49.010;12.034;2023-08-06T02:44:03;13.90;99.90
20204;DHT22;10261;49.010;12.034;2023-08-06T02:45:06;13.90;99.90
20204;DHT22;10261;49.010;12.034;2023-08-06T02:46:09;14.00;99.90
20204;DHT22;10261;49.010;12.034;2023-08-06T02:47:11;14.00;99.90
20204;DHT22;10261;49.010;12.034;2023-08-06T02:48:13;14.00;99.90
20204;DHT22;10261;49.010;12.034;2023-08-06T02:49:15;13.90;99.90
20204;DHT22;10261;49.010;12.034;2023-08-06T02:50:18;13.90;99.90
20204;DHT22;10261;49.010;12.034;2023-08-06T02:51:20;13.90;99.90
20204;DHT22;10261;49.010;12.034;2023-08-06T02:52:23;13.90;99.90
20204;DHT22;10261;49.010;12.034;2023-08-06T02:53:25;13.90;99.90
20204;DHT22;10261;49.010;12.034;2023-08-06T02:54:29;13.90;99.90
20204;DHT22;10261;49.010;12.034;2023-08-06T02:55:31;13.90;99.90
20204;DHT22;10261;49.010;12.034;2023-08-06T02:56:34;13.90;99.90
20204;DHT22;10261;49.010;12.034;2023-08-06T02:57:36;13.90;99.90
20204;DHT22;10261;49.010;12.034;2023-08-06T02:58:38;13.90;99.90
20204;DHT22;10261;49.010;12.034;2023-08-06T02:59:40;13.90;99.90
20204;DHT22;10261;49.010;12.034;2023-08-06T03:00:43;13.90;99.90
20204;DHT22;10261;49.010;12.034;2023-08-06T03:01:45;13.90;99.90
20204;DHT22;10261;49.010;12.034;2023-08-06T03:02:48;14.00;99.90
20204;DHT22;10261;49.010;12.034;2023-08-06T03:03:50;14.00;99.90
20204;DHT22;10261;49.010;12.034;2023-08-06T03:04:53;14.00;99.90
20204;DHT22;10261;49.010;12.034;2023-08-06T03:05:55;13.90;99.90
20204;DHT22;10261;49.010;12.034;2023-08-06T03:06:58;13.90;99.90
20204;DHT22;10261;49.010;12.034;2023-08-06T03:08:00;13.90;99.90
20204;DHT22;10261;49.010;12.034;2023-08-06T03:09:03;13.90;99.90
20204;DHT22;10261;49.010;12.034;2023-08-06T03:10:07;13.90;99.90
20204;DHT22;10261;49.010;12.034;2023-08-06T03:11:10;13.90;99.90
20204;DHT22;10261;49.010;12.034;2023-08-06T03:12:12;13.90;99.90
20204;DHT22;10261;49.010;12.034;2023-08-06T03:13:15;13.90;99.90
20204;DHT22;10261;49.010;12.034;2023-08-06T03:14:17;13.90;99.90
20204;DHT22;10261;49.010;12.034;2023-08-06T03:15:20;13.90;99.90
20204;DHT22;10261;49.010;12.034;2023-08-06T03:16:22;13.90;99.90
20204;DHT22;10261;49.010;12.034;2023-08-06T03:17:25;13.90;99.90
20204;DHT22;10261;49.010;12.034;2023-08-06T03:18:27;13.90;99.90
20204;DHT22;10261;49.010;12.034;2023-08-06T03:19:30;13.90;99.90
20204;DHT22;10261;49.010;12.034;2023-08-06T03:20:32;13.90;99.90
20204;DHT22;10261;49.010;12.034;2023-08-06T03:21:35;13.90;99.90
20204;DHT22;10261;49.010;12.034;2023-08-06T03:22:37;13.90;99.90
20204;DHT22;10261;49.010;12.034;2023-08-06T03:23:40;13.90;99.90
20204;DHT22;10261;49.010;12.034;2023-08-06T03:24:42;13.80;99.90
20204;DHT22;10261;49.010;12.034;2023-08-06T03:25:46;13.80;99.90
20204;DHT22;10261;49.010;12.034;2023-08-06T03:26:48;13.90;99.90
20204;DHT22;10261;49.010;12.034;2023-08-06T03:27:51;13.90;99.90
20204;DHT22;10261;49.010;12.034;2023-08-06T03:28:53;13.90;99.90
20204;DHT22;10261;49.010;12.034;2023-08-06T03:29:56;13.90;99.90
20204;DHT22;10261;49.010;12.034;2023-08-06T03:31:01;13.90;99.90
20204;DHT22;10261;49.010;12.034;2023-08-06T03:32:05;13.80;99.90
20204;DHT22;10261;49.010;12.034;2023-08-06T03:33:07;13.70;99.90
20204;DHT22;10261;49.010;12.034;2023-08-06T03:34:10;13.70;99.90
20204;DHT22;10261;49.010;12.034;2023-08-06T03:35:12;13.70;99.90
20204;DHT22;10261;49.010;12.034;2023-08-06T03:36:15;13.80;99.90
20204;DHT22;10261;49.010;12.034;2023-08-06T03:37:18;13.80;99.90
20204;DHT22;10261;49.010;12.034;2023-08-06T03:38:20;13.80;99.90
20204;DHT22;10261;49.010;12.034;2023-08-06T03:39:22;13.70;99.90
20204;DHT22;10261;49.010;12.034;2023-08-06T03:40:24;13.80;99.90
20204;DHT22;10261;49.010;12.034;2023-08-06T03:41:28;13.80;99.90
20204;DHT22;10261;49.010;12.034;2023-08-06T03:42:30;13.80;99.90
20204;DHT22;10261;49.010;12.034;2023-08-06T03:43:33;13.80;99.90
20204;DHT22;10261;49.010;12.034;2023-08-06T03:44:35;13.80;99.90
20204;DHT22;10261;49.010;12.034;2023-08-06T03:45:38;13.80;99.90
20204;DHT22;10261;49.010;12.034;2023-08-06T03:46:40;13.80;99.90
20204;DHT22;10261;49.010;12.034;2023-08-06T03:47:43;13.80;99.90
20204;DHT22;10261;49.010;12.034;2023-08-06T03:48:45;13.80;99.90
20204;DHT22;10261;49.010;12.034;2023-08-06T03:49:48;13.80;99.90
20204;DHT22;10261;49.010;12.034;2023-08-06T03:50:51;13.80;99.90
20204;DHT22;10261;49.010;12.034;2023-08-06T03:51:54;13.80;99.90
20204;DHT22;10261;49.010;12.034;2023-08-06T03:52:56;13.80;99.90
20204;DHT22;10261;49.010;12.034;2023-08-06T03:53:59;13.70;99.90
20204;DHT22;10261;49.010;12.034;2023-08-06T03:55:00;13.80;99.90
20204;DHT22;10261;49.010;12.034;2023-08-06T03:56:04;13.80;99.90
20204;DHT22;10261;49.010;12.034;2023-08-06T03:57:07;13.80;99.90
20204;DHT22;10261;49.010;12.034;2023-08-06T03:58:10;13.70;99.90
20204;DHT22;10261;49.010;12.034;2023-08-06T03:59:12;13.70;99.90
20204;DHT22;10261;49.010;12.034;2023-08-06T04:00:15;13.80;99.90
20204;DHT22;10261;49.010;12.034;2023-08-06T04:01:17;13.80;99.90
20204;DHT22;10261;49.010;12.034;2023-08-06T04:02:20;13.80;99.90
20204;DHT22;10261;49.010;12.034;2023-08-06T04:03:22;13.80;99.90
20204;DHT22;10261;49.010;12.034;2023-08-06T04:04:25;13.80;99.90
20204;DHT22;10261;49.010;12.034;2023-08-06T04:05:27;13.80;99.90
20204;DHT22;10261;49.010;12.034;2023-08-06T04:06:30;13.70;99.90
20204;DHT22;10261;49.010;12.034;2023-08-06T04:07:31;13.70;99.90
20204;DHT22;10261;49.010;12.034;2023-08-06T04:08:34;13.80;99.90
20204;DHT22;10261;49.010;12.034;2023-08-06T04:09:52;13.70;99.90
20204;DHT22;10261;49.010;12.034;2023-08-06T04:10:55;13.70;99.90
20204;DHT22;10261;49.010;12.034;2023-08-06T04:11:56;13.70;99.90
20204;DHT22;10261;49.010;12.034;2023-08-06T04:13:01;13.70;99.90
20204;DHT22;10261;49.010;12.034;2023-08-06T04:14:03;15.00;99.90
20204;DHT22;10261;49.010;12.034;2023-08-06T04:15:07;13.70;99.90
20204;DHT22;10261;49.010;12.034;2023-08-06T04:16:09;13.70;99.90
20204;DHT22;10261;49.010;12.034;2023-08-06T04:17:12;13.70;99.90
20204;DHT22;10261;49.010;12.034;2023-08-06T04:18:14;13.80;99.90
20204;DHT22;10261;49.010;12.034;2023-08-06T04:19:16;13.70;99.90
20204;DHT22;10261;49.010;12.034;2023-08-06T04:20:19;13.80;99.90
20204;DHT22;10261;49.010;12.034;2023-08-06T04:21:21;13.30;99.90
20204;DHT22;10261;49.010;12.034;2023-08-06T04:22:24;13.70;99.90
20204;DHT22;10261;49.010;12.034;2023-08-06T04:23:26;13.70;99.90
20204;DHT22;10261;49.010;12.034;2023-08-06T04:24:29;13.80;99.90
20204;DHT22;10261;49.010;12.034;2023-08-06T04:25:31;13.80;99.90
20204;DHT22;10261;49.010;12.034;2023-08-06T04:26:34;13.80;99.90
20204;DHT22;10261;49.010;12.034;2023-08-06T04:27:36;13.80;99.90
20204;DHT22;10261;49.010;12.034;2023-08-06T04:28:44;13.70;99.90
20204;DHT22;10261;49.010;12.034;2023-08-06T04:29:46;13.80;99.90
20204;DHT22;10261;49.010;12.034;2023-08-06T04:30:49;13.80;99.90
20204;DHT22;10261;49.010;12.034;2023-08-06T04:31:51;13.80;99.90
20204;DHT22;10261;49.010;12.034;2023-08-06T04:32:56;13.80;99.90
20204;DHT22;10261;49.010;12.034;2023-08-06T04:33:58;13.80;99.90
20204;DHT22;10261;49.010;12.034;2023-08-06T04:35:01;13.80;99.90
20204;DHT22;10261;49.010;12.034;2023-08-06T04:36:03;13.80;99.90
20204;DHT22;10261;49.010;12.034;2023-08-06T04:37:07;13.90;99.90
20204;DHT22;10261;49.010;12.034;2023-08-06T04:38:09;13.90;99.90
20204;DHT22;10261;49.010;12.034;2023-08-06T04:39:12;13.90;99.90
20204;DHT22;10261;49.010;12.034;2023-08-06T04:40:14;13.80;99.90
20204;DHT22;10261;49.010;12.034;2023-08-06T04:41:17;13.80;99.90
20204;DHT22;10261;49.010;12.034;2023-08-06T04:42:19;13.80;99.90
20204;DHT22;10261;49.010;12.034;2023-08-06T04:43:22;13.80;99.90
20204;DHT22;10261;49.010;12.034;2023-08-06T04:44:26;13.80;99.90
20204;DHT22;10261;49.010;12.034;2023-08-06T04:45:29;13.80;99.90
20204;DHT22;10261;49.010;12.034;2023-08-06T04:46:30;13.80;99.90
20204;DHT22;10261;49.010;12.034;2023-08-06T04:47:33;13.90;99.90
20204;DHT22;10261;49.010;12.034;2023-08-06T04:48:35;13.80;99.90
20204;DHT22;10261;49.010;12.034;2023-08-06T04:49:38;13.90;99.90
20204;DHT22;10261;49.010;12.034;2023-08-06T04:50:43;13.80;99.90
20204;DHT22;10261;49.010;12.034;2023-08-06T04:51:46;13.80;99.90
20204;DHT22;10261;49.010;12.034;2023-08-06T04:52:48;13.90;99.90
20204;DHT22;10261;49.010;12.034;2023-08-06T04:53:51;13.80;99.90
20204;DHT22;10261;49.010;12.034;2023-08-06T04:54:53;13.90;99.90
20204;DHT22;10261;49.010;12.034;2023-08-06T04:55:56;13.90;99.90
20204;DHT22;10261;49.010;12.034;2023-08-06T04:56:58;13.90;99.90
20204;DHT22;10261;49.010;12.034;2023-08-06T04:58:01;13.80;99.90
20204;DHT22;10261;49.010;12.034;2023-08-06T04:59:02;13.80;99.90
20204;DHT22;10261;49.010;12.034;2023-08-06T05:00:08;13.90;99.90
20204;DHT22;10261;49.010;12.034;2023-08-06T05:01:10;13.80;99.90
20204;DHT22;10261;49.010;12.034;2023-08-06T05:02:13;13.80;99.90
20204;DHT22;10261;49.010;12.034;2023-08-06T05:03:14;13.80;99.90
20204;DHT22;10261;49.010;12.034;2023-08-06T05:04:17;13.80;99.90
20204;DHT22;10261;49.010;12.034;2023-08-06T05:05:19;13.80;99.90
20204;DHT22;10261;49.010;12.034;2023-08-06T05:06:22;13.90;99.90
20204;DHT22;10261;49.010;12.034;2023-08-06T05:07:24;13.80;99.90
20204;DHT22;10261;49.010;12.034;2023-08-06T05:08:27;13.90;99.90
20204;DHT22;10261;49.010;12.034;2023-08-06T05:09:29;13.90;99.90
20204;DHT22;10261;49.010;12.034;2023-08-06T05:10:32;13.90;99.90
20204;DHT22;10261;49.010;12.034;2023-08-06T05:11:34;13.90;99.90
20204;DHT22;10261;49.010;12.034;2023-08-06T05:12:37;13.90;99.90
20204;DHT22;10261;49.010;12.034;2023-08-06T05:13:39;13.90;99.90
20204;DHT22;10261;49.010;12.034;2023-08-06T05:14:41;13.90;99.90
20204;DHT22;10261;49.010;12.034;2023-08-06T05:15:45;13.90;99.90
20204;DHT22;10261;49.010;12.034;2023-08-06T05:16:48;13.90;99.90
20204;DHT22;10261;49.010;12.034;2023-08-06T05:17:51;13.90;99.90
20204;DHT22;10261;49.010;12.034;2023-08-06T05:18:53;13.90;99.90
20204;DHT22;10261;49.010;12.034;2023-08-06T05:19:55;13.90;99.90
20204;DHT22;10261;49.010;12.034;2023-08-06T05:20:57;13.90;99.90
20204;DHT22;10261;49.010;12.034;2023-08-06T05:21:59;13.90;99.90
20204;DHT22;10261;49.010;12.034;2023-08-06T05:23:03;13.90;99.90
20204;DHT22;10261;49.010;12.034;2023-08-06T05:24:05;13.90;99.90
20204;DHT22;10261;49.010;12.034;2023-08-06T05:25:08;14.00;99.90
20204;DHT22;10261;49.010;12.034;2023-08-06T05:26:10;13.90;99.90
20204;DHT22;10261;49.010;12.034;2023-08-06T05:27:13;13.90;99.90
20204;DHT22;10261;49.010;12.034;2023-08-06T05:28:15;14.00;99.90
20204;DHT22;10261;49.010;12.034;2023-08-06T05:29:18;14.00;99.90
20204;DHT22;10261;49.010;12.034;2023-08-06T05:30:20;14.00;99.90
20204;DHT22;10261;49.010;12.034;2023-08-06T05:31:24;14.00;99.90
20204;DHT22;10261;49.010;12.034;2023-08-06T05:32:26;14.00;99.90
20204;DHT22;10261;49.010;12.034;2023-08-06T05:33:29;13.90;99.90
20204;DHT22;10261;49.010;12.034;2023-08-06T05:34:31;13.90;99.90
20204;DHT22;10261;49.010;12.034;2023-08-06T05:35:34;13.90;99.90
20204;DHT22;10261;49.010;12.034;2023-08-06T05:36:36;13.90;99.90
20204;DHT22;10261;49.010;12.034;2023-08-06T05:37:38;14.00;99.90
20204;DHT22;10261;49.010;12.034;2023-08-06T05:38:40;14.00;99.90
20204;DHT22;10261;49.010;12.034;2023-08-06T05:39:43;14.00;99.90
20204;DHT22;10261;49.010;12.034;2023-08-06T05:40:45;14.00;99.90
20204;DHT22;10261;49.010;12.034;2023-08-06T05:41:48;14.00;99.90
20204;DHT22;10261;49.010;12.034;2023-08-06T05:42:50;13.90;99.90
20204;DHT22;10261;49.010;12.034;2023-08-06T05:43:53;13.90;99.90
20204;DHT22;10261;49.010;12.034;2023-08-06T05:44:54;14.00;99.90
20204;DHT22;10261;49.010;12.034;2023-08-06T05:45:57;13.90;99.90
20204;DHT22;10261;49.010;12.034;2023-08-06T05:47:01;13.90;99.90
20204;DHT22;10261;49.010;12.034;2023-08-06T05:48:03;14.00;99.90
20204;DHT22;10261;49.010;12.034;2023-08-06T05:49:06;14.00;99.90
20204;DHT22;10261;49.010;12.034;2023-08-06T05:50:09;14.00;99.90
20204;DHT22;10261;49.010;12.034;2023-08-06T05:51:11;14.00;99.90
20204;DHT22;10261;49.010;12.034;2023-08-06T05:52:15;14.00;99.90
20204;DHT22;10261;49.010;12.034;2023-08-06T05:53:17;14.00;99.90
20204;DHT22;10261;49.010;12.034;2023-08-06T05:54:19;14.00;99.90
20204;DHT22;10261;49.010;12.034;2023-08-06T05:55:22;14.10;99.90
20204;DHT22;10261;49.010;12.034;2023-08-06T05:56:24;14.00;99.90
20204;DHT22;10261;49.010;12.034;2023-08-06T05:57:27;14.00;99.90
20204;DHT22;10261;49.010;12.034;2023-08-06T05:58:29;14.10;99.90
20204;DHT22;10261;49.010;12.034;2023-08-06T05:59:32;14.10;99.90
20204;DHT22;10261;49.010;12.034;2023-08-06T06:00:34;14.00;99.90
20204;DHT22;10261;49.010;12.034;2023-08-06T06:01:36;14.10;99.90
20204;DHT22;10261;49.010;12.034;2023-08-06T06:02:40;14.10;99.90
20204;DHT22;10261;49.010;12.034;2023-08-06T06:03:43;14.10;99.90
20204;DHT22;10261;49.010;12.034;2023-08-06T06:04:45;14.10;99.90
20204;DHT22;10261;49.010;12.034;2023-08-06T06:05:48;14.10;99.90
20204;DHT22;10261;49.010;12.034;2023-08-06T06:06:50;14.10;99.90
20204;DHT22;10261;49.010;12.034;2023-08-06T06:07:52;14.10;99.90
20204;DHT22;10261;49.010;12.034;2023-08-06T06:08:54;14.10;99.90
20204;DHT22;10261;49.010;12.034;2023-08-06T06:09:57;14.10;99.90
20204;DHT22;10261;49.010;12.034;2023-08-06T06:11:00;14.10;99.90
20204;DHT22;10261;49.010;12.034;2023-08-06T06:12:03;14.10;99.90
20204;DHT22;10261;49.010;12.034;2023-08-06T06:13:05;14.10;99.90
20204;DHT22;10261;49.010;12.034;2023-08-06T06:14:11;14.20;99.90
20204;DHT22;10261;49.010;12.034;2023-08-06T06:15:13;14.20;99.90
20204;DHT22;10261;49.010;12.034;2023-08-06T06:16:15;14.20;99.90
20204;DHT22;10261;49.010;12.034;2023-08-06T06:17:17;14.20;99.90
20204;DHT22;10261;49.010;12.034;2023-08-06T06:18:22;14.30;99.90
20204;DHT22;10261;49.010;12.034;2023-08-06T06:19:24;14.30;99.90
20204;DHT22;10261;49.010;12.034;2023-08-06T06:20:31;14.30;99.90
20204;DHT22;10261;49.010;12.034;2023-08-06T06:21:33;14.30;99.90
20204;DHT22;10261;49.010;12.034;2023-08-06T06:22:36;14.30;99.90
20204;DHT22;10261;49.010;12.034;2023-08-06T06:23:38;14.30;99.90
20204;DHT22;10261;49.010;12.034;2023-08-06T06:24:40;14.30;99.90
20204;DHT22;10261;49.010;12.034;2023-08-06T06:25:43;14.20;99.90
20204;DHT22;10261;49.010;12.034;2023-08-06T06:26:45;14.30;99.90
20204;DHT22;10261;49.010;12.034;2023-08-06T06:27:48;14.30;99.90
20204;DHT22;10261;49.010;12.034;2023-08-06T06:28:50;14.30;99.90
20204;DHT22;10261;49.010;12.034;2023-08-06T06:29:52;14.30;99.90
20204;DHT22;10261;49.010;12.034;2023-08-06T06:31:00;14.40;99.90